createdAt,value
2022-10-15T00:01:18.543Z,99.01
2022-10-15T00:03:20.126Z,98.57
2022-10-15T00:05:22.569Z,98.87
2022-10-15T00:07:24.269Z,98.95
2022-10-15T00:09:25.903Z,98.68
2022-10-15T00:11:28.969Z,98.08
2022-10-15T00:13:30.444Z,98.31
2022-10-15T00:15:32.061Z,98.35
2022-10-15T00:17:34.736Z,98.08
2022-10-15T00:19:36.189Z,97.08
2022-10-15T00:21:38.116Z,96.46
2022-10-15T00:23:39.624Z,96.93
2022-10-15T00:25:42.451Z,96.26
2022-10-15T00:27:43.903Z,95.66
2022-10-15T00:29:45.348Z,95.28
2022-10-15T00:31:46.772Z,93.75
2022-10-15T00:33:50.672Z,93.54
2022-10-15T00:36:03.658Z,93.30
2022-10-15T00:38:05.154Z,93.00
2022-10-15T00:40:08.455Z,92.69
2022-10-15T00:42:11.215Z,92.81
2022-10-15T00:44:21.727Z,92.47
2022-10-15T00:46:35.225Z,92.23
2022-10-15T00:48:36.908Z,92.22
2022-10-15T00:50:38.739Z,91.38
2022-10-15T00:52:54.908Z,90.92
2022-10-15T00:55:02.056Z,90.74
2022-10-15T00:57:05.838Z,90.12
2022-10-15T00:59:09.072Z,89.89
2022-10-15T01:01:10.702Z,89.70
2022-10-15T01:03:15.173Z,89.78
2022-10-15T01:05:18.318Z,89.47
2022-10-15T01:07:19.890Z,90.59
2022-10-15T01:09:21.497Z,90.14
2022-10-15T01:11:50.625Z,90.16
2022-10-15T01:14:25.583Z,90.05
2022-10-15T01:16:46.576Z,89.72
2022-10-15T01:18:57.799Z,90.15
2022-10-15T01:21:09.285Z,90.80
2022-10-15T01:23:36.348Z,91.26
2022-10-15T01:25:56.247Z,91.55
2022-10-15T01:28:06.511Z,92.16
2022-10-15T01:30:49.647Z,92.19
2022-10-15T01:33:03.150Z,92.40
2022-10-15T01:35:20.044Z,93.17
2022-10-15T01:37:24.435Z,93.11
2022-10-15T01:39:39.196Z,93.12
2022-10-15T01:41:55.918Z,93.71
2022-10-15T01:44:07.080Z,94.03
2022-10-15T01:46:18.256Z,94.43
2022-10-15T01:48:21.023Z,94.68
2022-10-15T01:50:27.651Z,95.25
2022-10-15T01:52:34.267Z,95.58
2022-10-15T01:54:37.219Z,95.85
2022-10-15T01:56:39.313Z,95.88
2022-10-15T01:58:43.153Z,97.00
2022-10-15T02:00:44.919Z,96.81
2022-10-15T02:02:46.379Z,97.04
2022-10-15T02:04:47.814Z,97.57
2022-10-15T02:07:13.419Z,97.84
2022-10-15T02:09:14.786Z,98.06
2022-10-15T02:11:17.808Z,98.14
2022-10-15T02:13:28.363Z,98.69
2022-10-15T02:15:54.021Z,98.62
2022-10-15T02:20:43.966Z,98.75
2022-10-15T02:23:13.161Z,98.51
2022-10-15T02:25:19.123Z,98.86
2022-10-15T02:27:20.719Z,99.61
2022-10-15T02:29:27.118Z,99.52
2022-10-15T02:31:32.858Z,99.74
2022-10-15T02:33:35.850Z,99.55
2022-10-15T02:35:38.072Z,99.67
2022-10-15T02:37:44.616Z,99.82
2022-10-15T02:39:46.158Z,100.00
2022-10-15T02:41:49.023Z,100.00
2022-10-15T02:43:50.822Z,100.00
2022-10-15T02:45:52.350Z,100.00
2022-10-15T02:47:53.818Z,100.00
2022-10-15T02:49:55.290Z,100.00
2022-10-15T02:51:57.090Z,100.00
2022-10-15T02:53:58.587Z,100.00
2022-10-15T02:56:00.088Z,99.90
2022-10-15T02:58:01.736Z,99.82
2022-10-15T03:00:04.830Z,99.69
2022-10-15T03:02:06.419Z,100.00
2022-10-15T03:04:07.915Z,100.00
2022-10-15T03:06:09.744Z,100.00
2022-10-15T03:08:11.208Z,100.00
2022-10-15T03:10:12.649Z,99.80
2022-10-15T03:12:14.097Z,99.41
2022-10-15T03:14:15.525Z,99.28
2022-10-15T03:16:17.003Z,99.50
2022-10-15T03:18:18.522Z,99.40
2022-10-15T03:20:20.000Z,99.61
2022-10-15T03:22:21.434Z,99.93
2022-10-15T03:24:22.872Z,99.81
2022-10-15T03:26:24.686Z,100.00
2022-10-15T03:28:26.175Z,99.93
2022-10-15T03:30:27.631Z,100.00
2022-10-15T03:32:32.015Z,100.00
2022-10-15T03:34:35.786Z,100.00
2022-10-15T03:36:37.279Z,100.00
2022-10-15T03:38:38.725Z,100.00
2022-10-15T03:40:40.197Z,100.00
2022-10-15T03:42:41.713Z,100.00
2022-10-15T03:44:43.137Z,100.00
2022-10-15T03:46:44.576Z,100.00
2022-10-15T03:48:50.413Z,100.00
2022-10-15T03:50:51.837Z,100.00
2022-10-15T03:52:53.394Z,100.00
2022-10-15T03:54:54.829Z,100.00
2022-10-15T03:56:56.557Z,100.00
2022-10-15T03:58:58.431Z,100.00
2022-10-15T04:00:59.879Z,100.00
2022-10-15T04:03:01.381Z,100.00
2022-10-15T04:05:03.147Z,100.00
2022-10-15T04:07:04.613Z,100.00
2022-10-15T04:09:06.392Z,100.00
2022-10-15T04:11:07.931Z,100.00
2022-10-15T04:13:09.389Z,100.00
2022-10-15T04:15:11.030Z,100.00
2022-10-15T04:17:12.466Z,100.00
2022-10-15T04:19:13.921Z,100.00
2022-10-15T04:21:15.407Z,100.00
2022-10-15T04:23:17.973Z,100.00
2022-10-15T04:25:19.430Z,100.00
2022-10-15T04:27:20.917Z,100.00
2022-10-15T04:29:22.424Z,100.00
2022-10-15T04:31:23.920Z,100.00
2022-10-15T04:33:25.787Z,100.00
2022-10-15T04:35:27.393Z,100.00
2022-10-15T04:37:28.816Z,100.00
2022-10-15T04:39:30.233Z,100.00
2022-10-15T04:41:32.182Z,100.00
2022-10-15T04:43:33.862Z,100.00
2022-10-15T04:45:35.329Z,100.00
2022-10-15T04:47:37.098Z,100.00
2022-10-15T04:49:38.535Z,100.00
2022-10-15T04:51:40.026Z,100.00
2022-10-15T04:53:42.182Z,100.00
2022-10-15T04:55:43.641Z,100.00
2022-10-15T04:57:45.091Z,100.00
2022-10-15T04:59:46.513Z,100.00
2022-10-15T05:01:48.019Z,100.00
2022-10-15T05:03:49.621Z,100.00
2022-10-15T05:05:51.071Z,100.00
2022-10-15T05:07:52.501Z,100.00
2022-10-15T05:09:53.997Z,100.00
2022-10-15T05:11:55.965Z,100.00
2022-10-15T05:13:58.570Z,100.00
2022-10-15T05:16:18.148Z,100.00
2022-10-15T05:18:19.592Z,100.00
2022-10-15T05:20:21.054Z,100.00
2022-10-15T05:22:22.845Z,100.00
2022-10-15T05:24:24.707Z,100.00
2022-10-15T05:26:28.553Z,100.00
2022-10-15T05:28:30.873Z,100.00
2022-10-15T05:30:35.175Z,100.00
2022-10-15T05:32:36.711Z,100.00
2022-10-15T05:34:38.165Z,100.00
2022-10-15T05:36:39.716Z,100.00
2022-10-15T05:38:41.642Z,100.00
2022-10-15T05:40:49.195Z,100.00
2022-10-15T05:45:00.064Z,100.00
2022-10-15T05:47:01.619Z,100.00
2022-10-15T05:49:03.478Z,100.00
2022-10-15T05:51:07.621Z,100.00
2022-10-15T05:53:09.147Z,100.00
2022-10-15T05:55:10.947Z,100.00
2022-10-15T05:57:12.414Z,100.00
2022-10-15T05:59:13.824Z,100.00
2022-10-15T06:01:15.488Z,100.00
2022-10-15T06:03:16.919Z,100.00
2022-10-15T06:05:18.389Z,100.00
2022-10-15T06:07:20.504Z,100.00
2022-10-15T06:09:22.242Z,100.00
2022-10-15T06:11:23.756Z,100.00
2022-10-15T06:15:32.672Z,100.00
2022-10-15T06:17:34.105Z,100.00
2022-10-15T06:19:35.549Z,100.00
2022-10-15T06:21:37.010Z,100.00
2022-10-15T06:23:38.513Z,100.00
2022-10-15T06:25:39.986Z,100.00
2022-10-15T06:27:41.482Z,100.00
2022-10-15T06:29:42.933Z,100.00
2022-10-15T06:31:44.435Z,100.00
2022-10-15T06:33:45.863Z,100.00
2022-10-15T06:35:47.304Z,100.00
2022-10-15T06:37:49.010Z,100.00
2022-10-15T06:39:50.504Z,100.00
2022-10-15T06:41:51.941Z,100.00
2022-10-15T06:43:54.511Z,100.00
2022-10-15T06:45:59.221Z,100.00
2022-10-15T06:48:00.722Z,100.00
2022-10-15T06:50:02.280Z,100.00
2022-10-15T06:52:04.042Z,100.00
2022-10-15T06:54:05.565Z,100.00
2022-10-15T06:56:07.369Z,100.00
2022-10-15T06:58:09.360Z,100.00
2022-10-15T07:00:11.513Z,100.00
2022-10-15T07:02:14.248Z,100.00
2022-10-15T07:04:15.707Z,100.00
2022-10-15T07:06:17.739Z,100.00
2022-10-15T07:08:19.545Z,100.00
2022-10-15T07:10:21.788Z,100.00
2022-10-15T07:12:23.341Z,100.00
2022-10-15T07:14:24.962Z,100.00
2022-10-15T07:16:26.559Z,100.00
2022-10-15T07:18:27.991Z,100.00
2022-10-15T07:20:31.293Z,100.00
2022-10-15T07:22:32.730Z,100.00
2022-10-15T07:24:34.246Z,100.00
2022-10-15T07:26:35.759Z,100.00
2022-10-15T07:28:37.290Z,100.00
2022-10-15T07:30:38.903Z,100.00
2022-10-15T07:32:40.539Z,100.00
2022-10-15T07:34:41.971Z,100.00
2022-10-15T07:36:43.453Z,100.00
2022-10-15T07:38:44.882Z,100.00
2022-10-15T07:40:46.411Z,100.00
2022-10-15T07:42:58.639Z,100.00
2022-10-15T07:45:00.126Z,100.00
2022-10-15T07:47:01.581Z,100.00
2022-10-15T07:49:03.349Z,100.00
2022-10-15T07:51:07.171Z,100.00
2022-10-15T07:53:09.052Z,100.00
2022-10-15T07:55:10.789Z,100.00
2022-10-15T07:57:12.252Z,100.00
2022-10-15T07:59:13.790Z,100.00
2022-10-15T08:01:15.224Z,100.00
2022-10-15T08:03:16.688Z,100.00
2022-10-15T08:05:18.125Z,99.79
2022-10-15T08:07:19.626Z,99.69
2022-10-15T08:09:21.124Z,99.76
2022-10-15T08:11:22.603Z,99.23
2022-10-15T08:13:24.620Z,99.58
2022-10-15T08:15:26.115Z,99.42
2022-10-15T08:17:27.645Z,99.48
2022-10-15T08:19:29.115Z,98.88
2022-10-15T08:21:30.566Z,98.92
2022-10-15T08:23:32.981Z,98.70
2022-10-15T08:25:34.477Z,98.09
2022-10-15T08:27:36.454Z,97.52
2022-10-15T08:29:37.897Z,97.73
2022-10-15T08:31:40.031Z,97.18
2022-10-15T08:33:41.529Z,96.86
2022-10-15T08:35:43.719Z,97.30
2022-10-15T08:37:45.273Z,96.05
2022-10-15T08:39:47.023Z,96.51
2022-10-15T08:41:55.813Z,96.06
2022-10-15T08:43:57.680Z,96.42
2022-10-15T08:46:03.709Z,96.84
2022-10-15T08:48:11.056Z,96.95
2022-10-15T08:50:18.125Z,96.61
2022-10-15T08:52:43.057Z,96.50
2022-10-15T08:54:44.728Z,96.63
2022-10-15T08:56:54.327Z,96.39
2022-10-15T08:59:07.419Z,95.90
2022-10-15T09:01:29.016Z,95.25
2022-10-15T09:03:39.941Z,95.25
2022-10-15T09:05:51.564Z,94.59
2022-10-15T09:08:26.179Z,94.29
2022-10-15T09:10:35.801Z,94.17
2022-10-15T09:12:51.068Z,93.96
2022-10-15T09:14:56.956Z,93.66
2022-10-15T09:17:04.604Z,93.62
2022-10-15T09:19:15.293Z,93.31
2022-10-15T09:21:17.299Z,92.96
2022-10-15T09:23:25.757Z,91.53
2022-10-15T09:25:35.189Z,91.19
2022-10-15T09:27:39.491Z,91.90
2022-10-15T09:30:05.518Z,91.66
2022-10-15T09:32:15.886Z,90.77
2022-10-15T09:34:35.493Z,90.40
2022-10-15T09:36:51.741Z,90.86
2022-10-15T09:39:30.905Z,90.06
2022-10-15T09:42:01.465Z,90.34
2022-10-15T09:44:07.245Z,91.03
2022-10-15T09:46:09.520Z,90.89
2022-10-15T09:48:17.777Z,90.73
2022-10-15T09:50:19.508Z,89.98
2022-10-15T09:52:30.008Z,89.71
2022-10-15T09:55:00.570Z,90.06
2022-10-15T09:57:02.014Z,89.43
2022-10-15T09:59:05.974Z,88.90
2022-10-15T10:01:22.239Z,89.16
2022-10-15T10:03:27.616Z,89.20
2022-10-15T10:05:31.240Z,89.03
2022-10-15T10:07:37.989Z,88.77
2022-10-15T10:09:52.208Z,87.43
2022-10-15T10:11:56.274Z,86.75
2022-10-15T10:13:59.993Z,86.49
2022-10-15T10:16:12.992Z,86.20
2022-10-15T10:18:24.206Z,86.03
2022-10-15T10:20:31.250Z,86.07
2022-10-15T10:22:50.396Z,86.09
2022-10-15T10:24:53.218Z,86.01
2022-10-15T10:26:55.103Z,84.55
2022-10-15T10:29:05.058Z,84.95
2022-10-15T10:31:17.755Z,83.85
2022-10-15T10:33:30.854Z,83.91
2022-10-15T10:35:43.829Z,83.62
2022-10-15T10:37:45.343Z,82.50
2022-10-15T10:39:52.588Z,81.85
2022-10-15T10:41:55.544Z,81.05
2022-10-15T10:43:56.968Z,81.58
2022-10-15T10:46:17.335Z,80.61
2022-10-15T10:48:37.666Z,78.75
2022-10-15T10:50:41.006Z,77.08
2022-10-15T10:52:42.531Z,76.20
2022-10-15T10:54:44.231Z,73.90
2022-10-15T10:56:45.783Z,71.33
2022-10-15T10:58:53.008Z,70.67
2022-10-15T11:00:55.615Z,71.01
2022-10-15T11:02:57.545Z,71.81
2022-10-15T11:04:58.994Z,73.17
2022-10-15T11:07:06.275Z,73.97
2022-10-15T11:09:44.398Z,75.15
2022-10-15T11:12:07.620Z,76.70
2022-10-15T11:14:41.368Z,77.26
2022-10-15T11:17:04.241Z,77.61
2022-10-15T11:19:50.370Z,76.23
2022-10-15T11:22:01.515Z,74.35
2022-10-15T11:24:16.206Z,72.49
2022-10-15T11:26:52.504Z,71.28
2022-10-15T11:30:02.283Z,69.62
2022-10-15T11:32:28.433Z,71.37
2022-10-15T11:34:41.425Z,70.48
2022-10-15T11:37:15.403Z,69.81
2022-10-15T11:40:00.192Z,69.74
2022-10-15T11:42:23.706Z,71.55
2022-10-15T11:44:52.380Z,72.80
2022-10-15T11:47:08.713Z,72.85
2022-10-15T11:49:38.321Z,72.27
2022-10-15T11:52:03.818Z,72.72
2022-10-15T11:54:11.661Z,73.14
2022-10-15T11:56:19.130Z,72.66
2022-10-15T11:58:31.045Z,72.15
2022-10-15T12:00:38.701Z,73.04
2022-10-15T12:02:40.509Z,73.15
2022-10-15T12:04:52.049Z,73.76
2022-10-15T12:06:57.142Z,74.21
2022-10-15T12:09:00.565Z,74.27
2022-10-15T12:11:28.365Z,74.65
2022-10-15T12:14:07.694Z,74.76
2022-10-15T12:16:19.179Z,75.43
2022-10-15T12:18:31.565Z,75.20
2022-10-15T12:20:33.045Z,74.93
2022-10-15T12:22:40.066Z,75.22
2022-10-15T12:24:45.108Z,75.13
2022-10-15T12:26:46.595Z,74.85
2022-10-15T12:28:50.377Z,74.90
2022-10-15T12:31:03.957Z,74.63
2022-10-15T12:33:28.473Z,73.92
2022-10-15T12:35:32.860Z,73.66
2022-10-15T12:37:36.126Z,73.90
2022-10-15T12:39:57.484Z,74.12
2022-10-15T12:41:59.941Z,73.85
2022-10-15T12:44:20.884Z,74.13
2022-10-15T12:46:22.389Z,74.14
2022-10-15T12:48:41.029Z,74.53
2022-10-15T12:50:42.563Z,74.02
2022-10-15T12:53:26.265Z,74.64
2022-10-15T12:55:36.457Z,73.54
2022-10-15T12:57:38.823Z,74.17
2022-10-15T12:59:46.073Z,73.73
2022-10-15T13:01:47.636Z,74.02
2022-10-15T13:03:49.367Z,74.13
2022-10-15T13:05:54.064Z,75.06
2022-10-15T13:07:58.469Z,74.78
2022-10-15T13:09:59.967Z,74.93
2022-10-15T13:12:02.384Z,74.89
2022-10-15T13:14:13.009Z,75.05
2022-10-15T13:16:14.921Z,75.56
2022-10-15T13:18:16.490Z,75.97
2022-10-15T13:20:37.962Z,76.31
2022-10-15T13:22:39.431Z,75.75
2022-10-15T13:24:43.678Z,75.83
2022-10-15T13:26:45.168Z,76.54
2022-10-15T13:28:49.466Z,77.12
2022-10-15T13:30:50.926Z,76.68
2022-10-15T13:32:55.289Z,77.28
2022-10-15T13:34:57.839Z,77.76
2022-10-15T13:37:02.064Z,78.19
2022-10-15T13:39:07.841Z,78.36
2022-10-15T13:41:09.487Z,78.58
2022-10-15T13:43:20.402Z,78.86
2022-10-15T13:45:21.828Z,79.96
2022-10-15T13:47:30.897Z,80.04
2022-10-15T13:49:32.637Z,80.68
2022-10-15T13:51:41.965Z,81.15
2022-10-15T13:53:43.502Z,81.86
2022-10-15T13:55:51.022Z,83.35
2022-10-15T13:58:01.809Z,84.16
2022-10-15T14:00:04.521Z,85.68
2022-10-15T14:02:11.701Z,86.88
2022-10-15T14:04:19.110Z,87.75
2022-10-15T14:06:22.001Z,88.66
2022-10-15T14:08:28.058Z,89.38
2022-10-15T14:10:29.688Z,89.04
2022-10-15T14:12:31.221Z,90.20
2022-10-15T14:14:34.242Z,90.73
2022-10-15T14:16:42.443Z,91.05
2022-10-15T14:18:49.459Z,91.79
2022-10-15T14:20:51.178Z,92.05
2022-10-15T14:22:52.795Z,92.23
2022-10-15T14:24:56.238Z,92.02
2022-10-15T14:27:04.334Z,92.24
2022-10-15T14:29:07.681Z,92.79
2022-10-15T14:31:09.225Z,92.96
2022-10-15T14:33:49.015Z,92.61
2022-10-15T14:36:11.766Z,92.66
2022-10-15T14:38:13.458Z,93.15
2022-10-15T14:40:18.503Z,93.45
2022-10-15T14:42:28.039Z,93.65
2022-10-15T14:44:48.084Z,94.21
2022-10-15T14:47:01.325Z,94.63
2022-10-15T14:49:02.998Z,95.07
2022-10-15T14:51:07.714Z,95.12
2022-10-15T14:53:16.036Z,95.74
2022-10-15T14:55:24.108Z,95.74
2022-10-15T14:57:29.739Z,95.92
2022-10-15T14:59:37.022Z,96.26
2022-10-15T15:01:39.477Z,96.65
2022-10-15T15:03:46.868Z,96.97
2022-10-15T15:05:50.880Z,97.46
2022-10-15T15:07:52.620Z,97.50
2022-10-15T15:09:54.301Z,97.50
2022-10-15T15:11:56.009Z,97.91
2022-10-15T15:13:57.556Z,98.09
2022-10-15T15:15:58.981Z,98.20
2022-10-15T15:18:00.449Z,98.39
2022-10-15T15:20:01.921Z,98.54
2022-10-15T15:22:03.352Z,98.75
2022-10-15T15:24:05.206Z,98.82
2022-10-15T15:26:06.708Z,98.88
2022-10-15T15:28:29.378Z,98.80
2022-10-15T15:30:34.254Z,98.68
2022-10-15T15:32:35.739Z,98.92
2022-10-15T15:34:37.188Z,99.16
2022-10-15T15:36:38.613Z,99.13
2022-10-15T15:38:40.565Z,99.29
2022-10-15T15:40:42.007Z,99.57
2022-10-15T15:42:44.185Z,99.34
2022-10-15T15:44:46.138Z,99.63
2022-10-15T15:46:50.285Z,99.64
2022-10-15T15:48:51.788Z,99.93
2022-10-15T15:50:53.405Z,100.00
2022-10-15T15:52:55.097Z,100.00
2022-10-15T15:54:56.791Z,100.00
2022-10-15T15:56:58.306Z,100.00
2022-10-15T15:58:59.719Z,100.00
2022-10-15T16:01:01.343Z,100.00
2022-10-15T16:03:02.921Z,100.00
2022-10-15T16:05:08.866Z,100.00
2022-10-15T16:07:13.351Z,100.00
2022-10-15T16:09:16.866Z,100.00
2022-10-15T16:11:18.313Z,100.00
2022-10-15T16:13:19.737Z,100.00
2022-10-15T16:15:21.171Z,100.00
2022-10-15T16:17:24.137Z,100.00
2022-10-15T16:19:25.879Z,100.00
2022-10-15T16:21:28.250Z,100.00
2022-10-15T16:23:29.705Z,100.00
2022-10-15T16:25:31.281Z,100.00
2022-10-15T16:27:34.469Z,100.00
2022-10-15T16:29:36.043Z,100.00
2022-10-15T16:31:37.566Z,100.00
2022-10-15T16:33:38.987Z,100.00
2022-10-15T16:35:40.583Z,100.00
2022-10-15T16:37:42.005Z,100.00
2022-10-15T16:39:43.518Z,100.00
2022-10-15T16:41:45.001Z,100.00
2022-10-15T16:43:47.638Z,100.00
2022-10-15T16:45:58.977Z,100.00
2022-10-15T16:48:00.411Z,100.00
2022-10-15T16:50:04.084Z,100.00
2022-10-15T16:52:05.561Z,100.00
2022-10-15T16:54:07.042Z,100.00
2022-10-15T16:56:14.128Z,100.00
2022-10-15T16:58:15.594Z,100.00
2022-10-15T17:00:17.034Z,100.00
2022-10-15T17:02:18.693Z,100.00
2022-10-15T17:04:20.190Z,100.00
2022-10-15T17:06:24.640Z,100.00
2022-10-15T17:08:34.857Z,100.00
2022-10-15T17:10:41.994Z,100.00
2022-10-15T17:12:43.467Z,100.00
2022-10-15T17:14:50.705Z,100.00
2022-10-15T17:16:52.717Z,100.00
2022-10-15T17:18:55.502Z,100.00
2022-10-15T17:20:56.978Z,100.00
2022-10-15T17:22:58.456Z,100.00
2022-10-15T17:24:59.955Z,100.00
2022-10-15T17:27:01.406Z,100.00
2022-10-15T17:29:04.567Z,100.00
2022-10-15T17:31:08.207Z,100.00
2022-10-15T17:33:09.631Z,100.00
2022-10-15T17:35:11.052Z,100.00
2022-10-15T17:37:14.252Z,100.00
2022-10-15T17:39:18.826Z,100.00
2022-10-15T17:41:22.407Z,100.00
2022-10-15T17:43:23.830Z,100.00
2022-10-15T17:45:25.261Z,100.00
2022-10-15T17:47:27.184Z,100.00
2022-10-15T17:49:28.936Z,100.00
2022-10-15T17:51:31.845Z,100.00
2022-10-15T17:53:33.858Z,100.00
2022-10-15T17:55:35.278Z,100.00
2022-10-15T17:57:36.747Z,100.00
2022-10-15T17:59:38.166Z,100.00
2022-10-15T18:01:58.694Z,100.00
2022-10-15T18:04:00.890Z,100.00
2022-10-15T18:06:16.028Z,100.00
2022-10-15T18:08:18.002Z,100.00
2022-10-15T18:10:19.628Z,100.00
2022-10-15T18:12:21.069Z,100.00
2022-10-15T18:14:22.570Z,100.00
2022-10-15T18:16:24.474Z,100.00
2022-10-15T18:18:26.795Z,100.00
2022-10-15T18:20:28.276Z,100.00
2022-10-15T18:22:30.328Z,100.00
2022-10-15T18:24:33.060Z,100.00
2022-10-15T18:26:34.590Z,100.00
2022-10-15T18:28:39.290Z,100.00
2022-10-15T18:30:42.423Z,100.00
2022-10-15T18:32:43.872Z,100.00
2022-10-15T18:34:45.340Z,100.00
2022-10-15T18:36:46.815Z,100.00
2022-10-15T18:38:48.885Z,100.00
2022-10-15T18:40:50.371Z,100.00
2022-10-15T18:42:51.855Z,100.00
2022-10-15T18:44:54.319Z,100.00
2022-10-15T18:46:56.126Z,100.00
2022-10-15T18:48:58.158Z,100.00
2022-10-15T18:51:01.339Z,100.00
2022-10-15T18:53:04.846Z,100.00
2022-10-15T18:55:06.945Z,100.00
2022-10-15T18:57:08.386Z,100.00
2022-10-15T18:59:10.078Z,100.00
2022-10-15T19:01:14.395Z,100.00
2022-10-15T19:03:15.872Z,100.00
2022-10-15T19:05:17.556Z,100.00
2022-10-15T19:07:19.282Z,100.00
2022-10-15T19:09:24.144Z,100.00
2022-10-15T19:11:25.999Z,100.00
2022-10-15T19:13:27.444Z,100.00
2022-10-15T19:15:28.913Z,100.00
2022-10-15T19:17:30.439Z,100.00
2022-10-15T19:19:32.030Z,100.00
2022-10-15T19:21:34.341Z,100.00
2022-10-15T19:23:35.938Z,100.00
2022-10-15T19:25:41.662Z,100.00
2022-10-15T19:27:43.883Z,100.00
2022-10-15T19:29:45.314Z,100.00
2022-10-15T19:31:48.767Z,100.00
2022-10-15T19:33:50.395Z,100.00
2022-10-15T19:35:53.141Z,100.00
2022-10-15T19:37:54.571Z,100.00
2022-10-15T19:39:56.019Z,100.00
2022-10-15T19:41:57.508Z,100.00
2022-10-15T19:43:59.093Z,100.00
2022-10-15T19:46:04.302Z,100.00
2022-10-15T19:48:06.325Z,100.00
2022-10-15T19:50:07.948Z,100.00
2022-10-15T19:52:09.407Z,100.00
2022-10-15T19:54:10.987Z,100.00
2022-10-15T19:56:12.530Z,100.00
2022-10-15T19:58:14.175Z,100.00
2022-10-15T20:00:16.181Z,100.00
2022-10-15T20:02:17.648Z,100.00
2022-10-15T20:04:19.103Z,100.00
2022-10-15T20:06:20.909Z,100.00
2022-10-15T20:08:22.986Z,100.00
2022-10-15T20:10:26.254Z,100.00
2022-10-15T20:12:28.008Z,100.00
2022-10-15T20:14:29.446Z,100.00
2022-10-15T20:16:33.223Z,100.00
2022-10-15T20:18:36.072Z,100.00
2022-10-15T20:20:39.814Z,100.00
2022-10-15T20:22:41.247Z,100.00
2022-10-15T20:24:42.763Z,100.00
2022-10-15T20:26:44.599Z,99.67
2022-10-15T20:28:46.696Z,99.55
2022-10-15T20:30:49.805Z,99.61
2022-10-15T20:32:51.392Z,99.49
2022-10-15T20:34:52.852Z,99.23
2022-10-15T20:36:55.450Z,99.40
2022-10-15T20:38:59.445Z,99.63
2022-10-15T20:41:06.397Z,99.52
2022-10-15T20:43:08.951Z,99.61
2022-10-15T20:45:16.109Z,99.46
2022-10-15T20:47:18.111Z,99.53
2022-10-15T20:49:25.334Z,99.34
2022-10-15T20:51:28.603Z,99.38
2022-10-15T20:53:30.485Z,99.17
2022-10-15T20:55:32.219Z,98.84
2022-10-15T20:57:33.910Z,98.72
2022-10-15T20:59:35.364Z,98.62
2022-10-15T21:01:37.297Z,98.56
2022-10-15T21:03:38.773Z,98.88
2022-10-15T21:05:40.221Z,98.69
2022-10-15T21:07:41.694Z,99.04
2022-10-15T21:09:43.151Z,98.86
2022-10-15T21:11:46.400Z,98.76
2022-10-15T21:13:47.843Z,98.48
2022-10-15T21:15:49.260Z,98.48
2022-10-15T21:17:50.714Z,97.98
2022-10-15T21:19:52.951Z,98.22
2022-10-15T21:21:54.670Z,98.44
2022-10-15T21:23:57.876Z,98.47
2022-10-15T21:26:10.780Z,97.52
2022-10-15T21:28:12.267Z,97.89
2022-10-15T21:30:13.803Z,97.34
2022-10-15T21:32:15.760Z,96.82
2022-10-15T21:34:17.319Z,96.31
2022-10-15T21:36:24.344Z,95.90
2022-10-15T21:38:26.050Z,96.27
2022-10-15T21:40:27.496Z,96.38
2022-10-15T21:42:30.617Z,96.89
2022-10-15T21:44:33.040Z,97.52
2022-10-15T21:46:35.079Z,97.23
2022-10-15T21:48:37.925Z,97.88
2022-10-15T21:50:39.351Z,97.73
2022-10-15T21:52:40.799Z,97.14
2022-10-15T21:54:42.238Z,97.18
2022-10-15T21:56:43.731Z,96.84
2022-10-15T21:58:45.614Z,96.75
2022-10-15T22:00:47.328Z,96.35
2022-10-15T22:02:50.516Z,96.52
2022-10-15T22:04:51.953Z,96.55
2022-10-15T22:06:53.430Z,96.04
2022-10-15T22:08:55.037Z,96.55
2022-10-15T22:11:17.268Z,96.84
2022-10-15T22:13:18.766Z,97.49
2022-10-15T22:15:20.198Z,97.58
2022-10-15T22:17:21.718Z,97.70
2022-10-15T22:19:23.278Z,98.05
2022-10-15T22:21:27.329Z,98.22
2022-10-15T22:23:28.768Z,98.13
2022-10-15T22:25:30.215Z,97.49
2022-10-15T22:27:32.492Z,97.64
2022-10-15T22:29:35.445Z,97.66
2022-10-15T22:33:40.833Z,97.44
2022-10-15T22:35:42.306Z,97.22
2022-10-15T22:37:43.760Z,97.08
2022-10-15T22:39:45.232Z,96.81
2022-10-15T22:41:48.301Z,96.89
2022-10-15T22:43:49.869Z,96.55
2022-10-15T22:45:51.804Z,96.34
2022-10-15T22:47:53.243Z,96.70
2022-10-15T22:49:54.724Z,96.02
2022-10-15T22:51:56.263Z,96.47
2022-10-15T22:53:59.105Z,96.18
2022-10-15T22:56:06.624Z,95.95
2022-10-15T22:58:08.072Z,95.55
2022-10-15T23:00:10.280Z,94.61
2022-10-15T23:02:11.738Z,94.03
2022-10-15T23:04:14.930Z,94.03
2022-10-15T23:06:18.174Z,93.40
2022-10-15T23:08:20.609Z,92.94
2022-10-15T23:10:22.529Z,93.27
2022-10-15T23:12:24.307Z,93.65
2022-10-15T23:14:26.076Z,93.13
2022-10-15T23:16:33.082Z,93.08
2022-10-15T23:18:34.841Z,92.38
2022-10-15T23:20:40.122Z,92.59
2022-10-15T23:22:41.564Z,92.18
2022-10-15T23:24:43.020Z,92.35
2022-10-15T23:26:44.440Z,91.67
2022-10-15T23:28:54.542Z,91.77
2022-10-15T23:30:56.191Z,91.42
2022-10-15T23:32:57.661Z,91.19
2022-10-15T23:34:59.148Z,91.04
2022-10-15T23:37:00.622Z,90.79
2022-10-15T23:39:05.197Z,89.59
2022-10-15T23:41:08.659Z,90.16
2022-10-15T23:43:10.081Z,90.07
2022-10-15T23:45:11.523Z,90.17
2022-10-15T23:47:12.951Z,89.90
2022-10-15T23:49:14.475Z,89.83
2022-10-15T23:51:24.778Z,88.98
2022-10-15T23:53:27.175Z,88.72
2022-10-15T23:55:28.705Z,88.96
2022-10-15T23:57:30.145Z,88.74
2022-10-15T23:59:31.619Z,89.17
